Davenport Center, NY (13751)

5:52 AM EDT on November 01, 2014 (GMT -0400)
MAS | Change Station
CLOSE
Current Station
Personal Weather Station
Location: Davenport Center, NY
Elevation: 1305 ft
Nearby Weather Stations

Elev 1305 ft 42.44 °N, 74.91 °W | Updated 2 seconds ago

Overcast
Overcast
40.5 °F
Feels Like 40 °F
N
0.0
Wind Variable Wind from ESE
Gusts 15.7 mph

Today
High -- | Low -- °F
--% Chance of Precip.
Yesterday
High -- | Low -- °F
Precip. -- in
7:33 AM 5:52 PM
Waxing Gibbous, 65% visible
Pressure 29.86 in
Visibility 10.0 miles
Clouds Mostly Cloudy 3600 ft
Overcast 7000 ft
Windchill 40 °F
Dew Point 34 °F
Humidity 76%
Rainfall 0.00 in
Snow Depth Not available.
UV 0 out of 12
Pollen .10 out of 12
Air Quality Not available.
Flu Activity Not available.
METAR KMSV 010935Z AUTO 07008KT 10SM BKN036 OVC070 05/01 A2986 RMK AO1

More Conditions Fewer Conditions

Pressure 29.86 in
Visibility 10.0 miles
Clouds Mostly Cloudy 3600 ft
Overcast 7000 ft
Windchill 40 °F
Dew Point 34 °F
Humidity 76%
Rainfall 0.00 in
Snow Depth Not available.
UV 0 out of 12
Pollen .10 out of 12
Air Quality Not available.
Flu Activity Not available.
METAR KMSV 010935Z AUTO 07008KT 10SM BKN036 OVC070 05/01 A2986 RMK AO1

More Conditions Fewer Conditions

10-Day Weather Forecast

Almanac

Astronomy

Nov. 01, 2014 Rise Set
Actual Time
Civil Twilight
Nautical Twilight
Astronomical Twilight
Moon
Length of Visible Light
Length of Day
Tomorrow will be .
, % of the Moon is Illuminated

Today's Extremes

State Highs State Lows

Community

WunderPhotos

Upload Photos

1,766,872 photos uploaded!

WunderBlogs® & News

Nearby

Air Quality

  Air Quality AQ Index Pollutant
Not available.

Snow Depth

Station Depth Elevation

Earthquake Activity

City Distance Mag. Time & Date
Minimum magnitude displayed is 2.5.

Coastal Water Temperatures

Place Temperature

Nearby Weather Stations